METAR AND TAF INFORMATION
METAR FOR EBBL
ADDS - METARS form results

(0942 UTC 25 January 2021)
Data provider http://aviationweather.gov/metar/data/
 
METAR text: EBBL 250933Z 36003KT 2000 OVC005 01/00 Q1004 YLO YLO BECMG GRN
Conditions at: EBBL (KLEINE-BROGEL(BA, BE) observed 0933 UTC 25 January 2021
Temperature: 1.0°C (34°F)
Dewpoint: 0.0°C (32°F) [RH = 93%]
Pressure (altimeter): 29.65 inches Hg (1004.0 mb)
Winds: from the N (360 degrees) at 3 MPH (3 knots; 1.5 m/s)
Visibility: 1.24 miles (2.00 km)
Ceiling: 500 feet AGL
Clouds: overcast cloud deck at 500 feet AGL
Weather: no significant weather observed at this time

METAR text: EBBL 250855Z 01003KT 1500 -FZDZ OVC003 00/00 Q1003 AMB YLO TEMPO AMB
Conditions at: EBBL (KLEINE-BROGEL(BA, BE) observed 0855 UTC 25 January 2021
Temperature: 0.0°C (32°F)
Dewpoint: 0.0°C (32°F) [RH = 100%]
Pressure (altimeter): 29.62 inches Hg (1003.0 mb)
Winds: from the N (10 degrees) at 3 MPH (3 knots; 1.5 m/s)
Visibility: 0.93 miles (1.50 km)
Ceiling: 300 feet AGL
Clouds: overcast cloud deck at 300 feet AGL
Weather: -FZDZ  (light freezing drizzle)

 AIRPORT MAP

 RUNWAY INFORMATION
Runway 05L Runway length 10158 ft Runway width 148 ft
Runway elevation 193 ft Runway displaced threshold 1085 ft Runway heading 50
Runway 23R Runway length 10158 ft Runway width 148 ft
Runway elevation 169 ft Runway displaced threshold 1128 ft Runway heading 230
Runway 05R Runway length 7874 ft Runway width 75 ft
Runway elevation 0 ft Runway displaced threshold 0 ft Runway heading 50
Runway 23L Runway length 7874 ft Runway width 75 ft
Runway elevation 0 ft Runway displaced threshold 24 ft Runway heading 230

 AIRPORT FREQUENCIES
Type APP Name APP Frequency 122.5 MHZ
Type GND Name TAXI Frequency 122.1 MHZ
Type TWR Name TWR Frequency 122.1 MHZ

 AIRPORT NEAR NAVIGATION AIDS
Type TACAN Name Kleine Brogel Frequency 109600 KHZ
Type NDB Name Kleine Brogel Frequency 431 KHZ